East Bend, North Carolina
Current Conditions -  °F | °C
As of 11:54 AM on Wednesday 22 Oct 2014 (Local Time) from KINT Reporting Station
Clear Clear  
Wind Chill: 61°   Ceiling: Unl
Heat Index: 61°   Visibility: 10mi
Dew Point: 38°   Wind: 15mph
Humidity: 42%   Direction: 350°N
Pressure: 30.07"   Gusts: 22mph
Location:  36.22°N, 80.51°W
Report Text: KINT 221554Z 35013G19KT 10SM CLR 16/03 A3007 RMK AO2 SLP179 T01610033
Loading
Personal Weather Stations






























Interactive Weather Map
Tropical Storm Tracking
New forecast layout! Learn more

10-Day Weather Forecast

Advertisements
Track Severe Weather on mobile